sensor_id;sensor_type;location;lat;lon;timestamp;pressure;altitude;pressure_sealevel;temperature;humidity
68197;BME280;55019;49.382;11.358;2023-04-27T00:01:34;96748.63;;;4.93;67.59
68197;BME280;55019;49.382;11.358;2023-04-27T00:04:01;96749.81;;;4.89;67.68
68197;BME280;55019;49.382;11.358;2023-04-27T00:06:29;96763.91;;;4.83;68.80
68197;BME280;55019;49.382;11.358;2023-04-27T00:08:55;96750.34;;;4.72;69.70
68197;BME280;55019;49.382;11.358;2023-04-27T00:11:21;96757.34;;;4.70;69.98
68197;BME280;55019;49.382;11.358;2023-04-27T00:13:47;96759.16;;;4.79;70.11
68197;BME280;55019;49.382;11.358;2023-04-27T00:16:13;96747.97;;;4.80;70.37
68197;BME280;55019;49.382;11.358;2023-04-27T00:18:38;96748.50;;;4.94;68.23
68197;BME280;55019;49.382;11.358;2023-04-27T00:21:04;96749.50;;;5.03;67.31
68197;BME280;55019;49.382;11.358;2023-04-27T00:23:30;96748.81;;;5.01;66.74
68197;BME280;55019;49.382;11.358;2023-04-27T00:25:56;96744.56;;;4.90;69.21
68197;BME280;55019;49.382;11.358;2023-04-27T00:28:21;96746.38;;;4.99;68.22
68197;BME280;55019;49.382;11.358;2023-04-27T00:30:47;96740.13;;;5.13;66.55
68197;BME280;55019;49.382;11.358;2023-04-27T00:33:13;96743.19;;;5.07;66.86
68197;BME280;55019;49.382;11.358;2023-04-27T00:35:39;96753.31;;;4.88;68.11
68197;BME280;55019;49.382;11.358;2023-04-27T00:38:05;96743.78;;;4.90;68.06
68197;BME280;55019;49.382;11.358;2023-04-27T00:40:32;96740.69;;;4.75;68.57
68197;BME280;55019;49.382;11.358;2023-04-27T00:42:58;96745.31;;;4.81;69.19
68197;BME280;55019;49.382;11.358;2023-04-27T00:45:24;96737.19;;;4.76;70.04
68197;BME280;55019;49.382;11.358;2023-04-27T00:47:50;96730.47;;;4.96;68.32
68197;BME280;55019;49.382;11.358;2023-04-27T00:50:20;96738.41;;;4.93;68.53
68197;BME280;55019;49.382;11.358;2023-04-27T00:52:49;96738.41;;;4.93;69.17
68197;BME280;55019;49.382;11.358;2023-04-27T00:55:15;96741.56;;;4.85;70.03
68197;BME280;55019;49.382;11.358;2023-04-27T00:57:41;96736.13;;;4.79;69.78
68197;BME280;55019;49.382;11.358;2023-04-27T01:00:07;96730.28;;;4.88;68.43
68197;BME280;55019;49.382;11.358;2023-04-27T01:02:35;96734.22;;;4.92;67.96
68197;BME280;55019;49.382;11.358;2023-04-27T01:05:04;96734.75;;;4.75;69.41
68197;BME280;55019;49.382;11.358;2023-04-27T01:07:30;96736.56;;;4.84;69.53
68197;BME280;55019;49.382;11.358;2023-04-27T01:09:57;96739.44;;;4.70;70.59
68197;BME280;55019;49.382;11.358;2023-04-27T01:12:22;96737.38;;;4.64;70.84
68197;BME280;55019;49.382;11.358;2023-04-27T01:14:48;96737.75;;;4.59;70.84
68197;BME280;55019;49.382;11.358;2023-04-27T01:17:14;96731.75;;;4.70;70.66
68197;BME280;55019;49.382;11.358;2023-04-27T01:19:39;96737.13;;;4.67;70.99
68197;BME280;55019;49.382;11.358;2023-04-27T01:27:40;96744.78;;;4.67;72.48
68197;BME280;55019;49.382;11.358;2023-04-27T01:30:06;96738.31;;;4.63;73.44
68197;BME280;55019;49.382;11.358;2023-04-27T01:32:32;96744.78;;;4.67;73.25
68197;BME280;55019;49.382;11.358;2023-04-27T01:34:58;96736.38;;;4.76;72.83
68197;BME280;55019;49.382;11.358;2023-04-27T01:37:25;96740.44;;;4.78;72.44
68197;BME280;55019;49.382;11.358;2023-04-27T01:39:51;96734.31;;;4.70;72.42
68197;BME280;55019;49.382;11.358;2023-04-27T01:42:17;96739.88;;;4.75;71.54
68197;BME280;55019;49.382;11.358;2023-04-27T01:44:42;96736.56;;;4.63;72.05
68197;BME280;55019;49.382;11.358;2023-04-27T01:47:08;96729.19;;;4.70;71.61
68197;BME280;55019;49.382;11.358;2023-04-27T01:49:34;96743.41;;;4.63;72.16
68197;BME280;55019;49.382;11.358;2023-04-27T01:51:59;96739.72;;;4.56;73.61
68197;BME280;55019;49.382;11.358;2023-04-27T01:54:25;96740.16;;;4.61;73.85
68197;BME280;55019;49.382;11.358;2023-04-27T01:56:51;96741.09;;;4.60;73.98
68197;BME280;55019;49.382;11.358;2023-04-27T01:59:16;96736.56;;;4.63;73.28
68197;BME280;55019;49.382;11.358;2023-04-27T02:01:42;96744.03;;;4.55;72.63
68197;BME280;55019;49.382;11.358;2023-04-27T02:04:08;96746.47;;;4.57;72.42
68197;BME280;55019;49.382;11.358;2023-04-27T02:06:34;96736.31;;;4.66;72.43
68197;BME280;55019;49.382;11.358;2023-04-27T02:09:00;96733.81;;;4.76;72.18
68197;BME280;55019;49.382;11.358;2023-04-27T02:11:25;96740.38;;;4.69;71.35
68197;BME280;55019;49.382;11.358;2023-04-27T02:13:53;96742.00;;;4.70;71.32
68197;BME280;55019;49.382;11.358;2023-04-27T02:16:19;96739.94;;;4.64;71.04
68197;BME280;55019;49.382;11.358;2023-04-27T02:18:44;96745.88;;;4.53;72.03
68197;BME280;55019;49.382;11.358;2023-04-27T02:21:10;96751.09;;;4.63;71.39
68197;BME280;55019;49.382;11.358;2023-04-27T02:23:36;96751.84;;;4.54;72.34
68197;BME280;55019;49.382;11.358;2023-04-27T02:26:02;96743.56;;;4.50;73.33
68197;BME280;55019;49.382;11.358;2023-04-27T02:28:28;96744.69;;;4.37;74.24
68197;BME280;55019;49.382;11.358;2023-04-27T02:30:54;96739.41;;;4.49;72.56
68197;BME280;55019;49.382;11.358;2023-04-27T02:33:19;96747.41;;;4.56;71.88
68197;BME280;55019;49.382;11.358;2023-04-27T02:35:45;96741.50;;;4.44;73.82
68197;BME280;55019;49.382;11.358;2023-04-27T02:38:11;96746.56;;;4.35;74.13
68197;BME280;55019;49.382;11.358;2023-04-27T02:40:38;96745.63;;;4.25;74.11
68197;BME280;55019;49.382;11.358;2023-04-27T02:43:05;96751.91;;;4.32;74.77
68197;BME280;55019;49.382;11.358;2023-04-27T02:45:31;96749.13;;;4.24;75.63
68197;BME280;55019;49.382;11.358;2023-04-27T02:47:57;96757.72;;;4.23;75.75
68197;BME280;55019;49.382;11.358;2023-04-27T02:50:22;96750.34;;;4.09;76.10
68197;BME280;55019;49.382;11.358;2023-04-27T02:52:48;96753.13;;;4.06;76.76
68197;BME280;55019;49.382;11.358;2023-04-27T02:55:14;96748.75;;;3.97;77.72
68197;BME280;55019;49.382;11.358;2023-04-27T02:57:39;96762.00;;;3.91;77.29
68197;BME280;55019;49.382;11.358;2023-04-27T03:00:06;96745.84;;;3.80;77.91
68197;BME280;55019;49.382;11.358;2023-04-27T03:02:33;96749.00;;;3.83;77.90
68197;BME280;55019;49.382;11.358;2023-04-27T03:04:59;96748.41;;;3.80;78.03
68197;BME280;55019;49.382;11.358;2023-04-27T03:07:25;96743.06;;;3.83;77.83
68197;BME280;55019;49.382;11.358;2023-04-27T03:09:51;96747.47;;;3.81;77.90
68197;BME280;55019;49.382;11.358;2023-04-27T03:12:16;96746.34;;;3.63;79.49
68197;BME280;55019;49.382;11.358;2023-04-27T03:14:42;96743.19;;;3.59;79.79
68197;BME280;55019;49.382;11.358;2023-04-27T03:17:08;96751.31;;;3.53;80.38
68197;BME280;55019;49.382;11.358;2023-04-27T03:19:33;96752.94;;;3.65;79.52
68197;BME280;55019;49.382;11.358;2023-04-27T03:21:59;96757.34;;;3.63;79.26
68197;BME280;55019;49.382;11.358;2023-04-27T03:24:25;96755.16;;;3.59;79.98
68197;BME280;55019;49.382;11.358;2023-04-27T03:26:51;96757.50;;;3.62;79.96
68197;BME280;55019;49.382;11.358;2023-04-27T03:29:18;96755.38;;;3.56;81.04
68197;BME280;55019;49.382;11.358;2023-04-27T03:31:43;96759.91;;;3.52;80.43
68197;BME280;55019;49.382;11.358;2023-04-27T03:34:09;96758.53;;;3.59;79.83
68197;BME280;55019;49.382;11.358;2023-04-27T03:36:37;96758.63;;;3.47;80.61
68197;BME280;55019;49.382;11.358;2023-04-27T03:39:03;96764.78;;;3.55;79.64
68197;BME280;55019;49.382;11.358;2023-04-27T03:41:29;96765.25;;;3.71;79.14
68197;BME280;55019;49.382;11.358;2023-04-27T03:43:54;96766.41;;;3.78;78.87
68197;BME280;55019;49.382;11.358;2023-04-27T03:46:20;96770.59;;;3.68;79.53
68197;BME280;55019;49.382;11.358;2023-04-27T03:48:46;96768.03;;;3.57;79.48
68197;BME280;55019;49.382;11.358;2023-04-27T03:51:12;96769.22;;;3.53;80.24
68197;BME280;55019;49.382;11.358;2023-04-27T03:53:41;96769.66;;;3.58;80.85
68197;BME280;55019;49.382;11.358;2023-04-27T03:56:07;96771.53;;;3.56;80.33
68197;BME280;55019;49.382;11.358;2023-04-27T03:58:33;96777.31;;;3.69;78.80
68197;BME280;55019;49.382;11.358;2023-04-27T04:01:10;96774.31;;;3.86;78.86
68197;BME280;55019;49.382;11.358;2023-04-27T04:03:36;96787.56;;;3.91;77.33
68197;BME280;55019;49.382;11.358;2023-04-27T04:06:05;96790.78;;;4.04;76.32
68197;BME280;55019;49.382;11.358;2023-04-27T04:08:30;96785.78;;;4.03;76.97
68197;BME280;55019;49.382;11.358;2023-04-27T04:10:59;96796.16;;;3.90;77.39
68197;BME280;55019;49.382;11.358;2023-04-27T04:13:24;96788.56;;;4.00;76.58
68197;BME280;55019;49.382;11.358;2023-04-27T04:16:09;96795.31;;;4.01;76.74
68197;BME280;55019;49.382;11.358;2023-04-27T04:18:35;96795.22;;;4.02;77.34
68197;BME280;55019;49.382;11.358;2023-04-27T04:21:02;96797.78;;;4.02;77.53
68197;BME280;55019;49.382;11.358;2023-04-27T04:23:28;96803.69;;;4.03;76.19
68197;BME280;55019;49.382;11.358;2023-04-27T04:25:54;96798.69;;;4.01;76.95
68197;BME280;55019;49.382;11.358;2023-04-27T04:28:26;96797.06;;;4.00;77.29
68197;BME280;55019;49.382;11.358;2023-04-27T04:30:52;96789.63;;;4.08;77.38
68197;BME280;55019;49.382;11.358;2023-04-27T04:33:18;96793.53;;;4.23;76.15
68197;BME280;55019;49.382;11.358;2023-04-27T04:35:44;96790.88;;;4.24;76.25
68197;BME280;55019;49.382;11.358;2023-04-27T04:38:10;96791.44;;;4.28;75.73
68197;BME280;55019;49.382;11.358;2023-04-27T04:40:39;96786.06;;;4.31;77.34
68197;BME280;55019;49.382;11.358;2023-04-27T04:43:06;96777.56;;;4.41;76.99
68197;BME280;55019;49.382;11.358;2023-04-27T04:45:32;96785.63;;;4.37;76.69
68197;BME280;55019;49.382;11.358;2023-04-27T04:47:57;96783.81;;;4.48;76.47
68197;BME280;55019;49.382;11.358;2023-04-27T04:50:25;96783.22;;;4.56;75.74
68197;BME280;55019;49.382;11.358;2023-04-27T04:52:51;96784.72;;;4.58;75.19
68197;BME280;55019;49.382;11.358;2023-04-27T04:55:17;96791.31;;;4.72;75.40
68197;BME280;55019;49.382;11.358;2023-04-27T04:57:44;96787.31;;;4.79;75.29
68197;BME280;55019;49.382;11.358;2023-04-27T05:00:10;96795.31;;;4.85;74.71
68197;BME280;55019;49.382;11.358;2023-04-27T05:02:38;96799.16;;;4.91;73.97
68197;BME280;55019;49.382;11.358;2023-04-27T05:05:04;96787.72;;;4.95;73.77
68197;BME280;55019;49.382;11.358;2023-04-27T05:07:29;96785.78;;;5.08;73.56
68197;BME280;55019;49.382;11.358;2023-04-27T05:09:55;96786.91;;;5.15;73.35
68197;BME280;55019;49.382;11.358;2023-04-27T05:12:21;96778.22;;;5.27;73.71
68197;BME280;55019;49.382;11.358;2023-04-27T05:14:47;96787.78;;;5.25;73.32
68197;BME280;55019;49.382;11.358;2023-04-27T05:17:13;96789.59;;;5.34;72.20
68197;BME280;55019;49.382;11.358;2023-04-27T05:19:38;96799.63;;;5.37;71.37
68197;BME280;55019;49.382;11.358;2023-04-27T05:22:04;96802.34;;;5.45;71.97
68197;BME280;55019;49.382;11.358;2023-04-27T05:24:30;96805.38;;;5.59;70.57
68197;BME280;55019;49.382;11.358;2023-04-27T05:26:56;96809.44;;;5.62;70.06
68197;BME280;55019;49.382;11.358;2023-04-27T05:29:21;96799.78;;;5.65;69.44
68197;BME280;55019;49.382;11.358;2023-04-27T05:31:47;96805.38;;;5.79;67.98
68197;BME280;55019;49.382;11.358;2023-04-27T05:34:13;96797.44;;;5.82;67.61
68197;BME280;55019;49.382;11.358;2023-04-27T05:36:39;96799.91;;;5.93;67.96
68197;BME280;55019;49.382;11.358;2023-04-27T05:39:04;96798.16;;;5.73;68.33
68197;BME280;55019;49.382;11.358;2023-04-27T05:41:30;96791.03;;;5.97;68.56
68197;BME280;55019;49.382;11.358;2023-04-27T05:43:56;96799.81;;;6.04;66.80
68197;BME280;55019;49.382;11.358;2023-04-27T05:46:22;96806.47;;;6.16;67.27
68197;BME280;55019;49.382;11.358;2023-04-27T05:48:47;96807.63;;;6.03;67.65
68197;BME280;55019;49.382;11.358;2023-04-27T05:51:14;96818.34;;;6.17;67.78
68197;BME280;55019;49.382;11.358;2023-04-27T05:53:41;96813.25;;;6.27;66.71
68197;BME280;55019;49.382;11.358;2023-04-27T05:56:07;96822.84;;;6.34;66.38
68197;BME280;55019;49.382;11.358;2023-04-27T05:58:33;96819.34;;;6.35;66.29
68197;BME280;55019;49.382;11.358;2023-04-27T06:01:02;96816.84;;;6.54;66.25
68197;BME280;55019;49.382;11.358;2023-04-27T06:03:30;96823.84;;;6.62;65.97
68197;BME280;55019;49.382;11.358;2023-04-27T06:05:58;96820.78;;;6.77;65.81
68197;BME280;55019;49.382;11.358;2023-04-27T06:08:25;96822.53;;;6.96;65.56
68197;BME280;55019;49.382;11.358;2023-04-27T06:10:52;96820.81;;;6.96;66.11
68197;BME280;55019;49.382;11.358;2023-04-27T06:13:17;96827.41;;;7.08;66.32
68197;BME280;55019;49.382;11.358;2023-04-27T06:15:43;96827.81;;;7.13;64.35
68197;BME280;55019;49.382;11.358;2023-04-27T06:18:09;96825.22;;;7.32;64.18
68197;BME280;55019;49.382;11.358;2023-04-27T06:20:35;96830.06;;;7.54;63.40
68197;BME280;55019;49.382;11.358;2023-04-27T06:23:01;96826.78;;;7.71;62.62
68197;BME280;55019;49.382;11.358;2023-04-27T06:25:27;96829.03;;;7.37;62.18
68197;BME280;55019;49.382;11.358;2023-04-27T06:27:56;96836.00;;;7.73;62.30
68197;BME280;55019;49.382;11.358;2023-04-27T06:30:23;96824.84;;;7.92;61.51
68197;BME280;55019;49.382;11.358;2023-04-27T06:32:49;96825.13;;;8.16;61.09
68197;BME280;55019;49.382;11.358;2023-04-27T06:35:16;96826.88;;;8.25;59.22
68197;BME280;55019;49.382;11.358;2023-04-27T06:37:41;96832.41;;;8.57;61.38
68197;BME280;55019;49.382;11.358;2023-04-27T06:40:07;96835.44;;;8.69;58.62
68197;BME280;55019;49.382;11.358;2023-04-27T06:42:34;96834.38;;;8.72;58.42
68197;BME280;55019;49.382;11.358;2023-04-27T06:44:59;96832.59;;;8.90;56.72
68197;BME280;55019;49.382;11.358;2023-04-27T06:47:25;96838.50;;;9.17;56.81
68197;BME280;55019;49.382;11.358;2023-04-27T06:49:51;96826.03;;;9.30;56.58
68197;BME280;55019;49.382;11.358;2023-04-27T06:52:17;96833.00;;;9.55;54.62
68197;BME280;55019;49.382;11.358;2023-04-27T06:54:43;96843.00;;;9.15;53.81
68197;BME280;55019;49.382;11.358;2023-04-27T06:57:08;96843.34;;;9.55;52.33
68197;BME280;55019;49.382;11.358;2023-04-27T06:59:34;96844.44;;;9.78;52.76
68197;BME280;55019;49.382;11.358;2023-04-27T07:02:00;96843.28;;;9.98;51.54
68197;BME280;55019;49.382;11.358;2023-04-27T07:04:26;96841.22;;;10.35;52.94
68197;BME280;55019;49.382;11.358;2023-04-27T07:06:52;96840.25;;;9.77;50.56
68197;BME280;55019;49.382;11.358;2023-04-27T07:09:17;96839.59;;;9.75;51.27
68197;BME280;55019;49.382;11.358;2023-04-27T07:11:43;96831.13;;;10.08;52.74
68197;BME280;55019;49.382;11.358;2023-04-27T07:14:09;96837.97;;;9.74;52.70
68197;BME280;55019;49.382;11.358;2023-04-27T07:16:35;96836.75;;;9.86;51.01
68197;BME280;55019;49.382;11.358;2023-04-27T07:19:00;96826.47;;;9.94;51.36
68197;BME280;55019;49.382;11.358;2023-04-27T07:21:26;96838.13;;;9.73;51.15
68197;BME280;55019;49.382;11.358;2023-04-27T07:23:53;96824.59;;;10.29;52.17
68197;BME280;55019;49.382;11.358;2023-04-27T07:26:18;96823.16;;;10.35;49.90
68197;BME280;55019;49.382;11.358;2023-04-27T07:28:44;96813.22;;;10.48;50.25
68197;BME280;55019;49.382;11.358;2023-04-27T07:31:11;96824.69;;;10.53;51.40
68197;BME280;55019;49.382;11.358;2023-04-27T07:33:37;96824.63;;;10.95;48.03
68197;BME280;55019;49.382;11.358;2023-04-27T07:36:03;96832.38;;;10.95;47.33
68197;BME280;55019;49.382;11.358;2023-04-27T07:38:29;96834.69;;;11.30;46.70
68197;BME280;55019;49.382;11.358;2023-04-27T07:41:01;96838.88;;;11.07;48.00
68197;BME280;55019;49.382;11.358;2023-04-27T07:43:30;96837.91;;;11.40;46.90
68197;BME280;55019;49.382;11.358;2023-04-27T07:45:57;96841.19;;;11.73;45.58
68197;BME280;55019;49.382;11.358;2023-04-27T07:48:23;96834.19;;;11.98;44.76
68197;BME280;55019;49.382;11.358;2023-04-27T07:50:49;96842.97;;;12.35;44.24
68197;BME280;55019;49.382;11.358;2023-04-27T07:53:15;96839.44;;;12.28;43.98
68197;BME280;55019;49.382;11.358;2023-04-27T07:55:41;96849.00;;;12.20;42.53
68197;BME280;55019;49.382;11.358;2023-04-27T07:58:08;96843.91;;;12.42;43.55
68197;BME280;55019;49.382;11.358;2023-04-27T08:00:34;96857.16;;;12.47;44.50
68197;BME280;55019;49.382;11.358;2023-04-27T08:03:00;96845.59;;;12.27;43.47
68197;BME280;55019;49.382;11.358;2023-04-27T08:05:26;96855.59;;;13.15;44.54
68197;BME280;55019;49.382;11.358;2023-04-27T08:07:51;96863.88;;;13.33;42.45
68197;BME280;55019;49.382;11.358;2023-04-27T08:10:17;96859.31;;;13.35;43.45
68197;BME280;55019;49.382;11.358;2023-04-27T08:12:43;96859.31;;;13.35;40.93
68197;BME280;55019;49.382;11.358;2023-04-27T08:15:09;96859.88;;;12.15;39.98
68197;BME280;55019;49.382;11.358;2023-04-27T08:17:35;96861.09;;;12.35;40.78
68197;BME280;55019;49.382;11.358;2023-04-27T08:20:03;96864.28;;;11.91;41.92
68197;BME280;55019;49.382;11.358;2023-04-27T08:22:30;96865.75;;;12.01;41.49
68197;BME280;55019;49.382;11.358;2023-04-27T08:24:56;96867.50;;;12.63;40.55
68197;BME280;55019;49.382;11.358;2023-04-27T08:27:21;96869.34;;;13.60;39.78
68197;BME280;55019;49.382;11.358;2023-04-27T08:29:47;96859.25;;;14.02;40.33
68197;BME280;55019;49.382;11.358;2023-04-27T08:32:13;96857.13;;;14.20;38.79
68197;BME280;55019;49.382;11.358;2023-04-27T08:34:39;96865.06;;;14.04;37.27
68197;BME280;55019;49.382;11.358;2023-04-27T08:37:06;96863.00;;;14.00;40.69
68197;BME280;55019;49.382;11.358;2023-04-27T08:39:32;96857.72;;;14.30;39.16
68197;BME280;55019;49.382;11.358;2023-04-27T08:41:57;96862.63;;;14.40;38.03
68197;BME280;55019;49.382;11.358;2023-04-27T08:44:23;96857.69;;;14.59;36.66
68197;BME280;55019;49.382;11.358;2023-04-27T08:46:49;96850.75;;;15.30;39.88
68197;BME280;55019;49.382;11.358;2023-04-27T08:49:15;96846.56;;;16.05;37.16
68197;BME280;55019;49.382;11.358;2023-04-27T08:51:41;96847.59;;;15.83;36.88
68197;BME280;55019;49.382;11.358;2023-04-27T08:54:07;96846.06;;;15.68;36.43
68197;BME280;55019;49.382;11.358;2023-04-27T08:56:33;96846.28;;;16.55;36.14
68197;BME280;55019;49.382;11.358;2023-04-27T08:58:59;96849.94;;;15.99;33.57
68197;BME280;55019;49.382;11.358;2023-04-27T09:01:28;96840.63;;;15.84;34.51
68197;BME280;55019;49.382;11.358;2023-04-27T09:03:55;96847.94;;;15.53;34.63
68197;BME280;55019;49.382;11.358;2023-04-27T09:06:33;96841.16;;;15.16;35.99
68197;BME280;55019;49.382;11.358;2023-04-27T09:09:00;96843.63;;;15.24;35.79
68197;BME280;55019;49.382;11.358;2023-04-27T09:11:36;96841.47;;;16.18;32.86
68197;BME280;55019;49.382;11.358;2023-04-27T09:14:17;96839.72;;;17.19;31.59
68197;BME280;55019;49.382;11.358;2023-04-27T09:16:43;96842.31;;;16.59;33.36
68197;BME280;55019;49.382;11.358;2023-04-27T09:19:10;96838.63;;;16.13;32.88
68197;BME280;55019;49.382;11.358;2023-04-27T09:21:36;96830.81;;;16.19;32.73
68197;BME280;55019;49.382;11.358;2023-04-27T09:24:12;96824.69;;;16.61;33.35
68197;BME280;55019;49.382;11.358;2023-04-27T09:26:38;96830.56;;;17.48;29.98
68197;BME280;55019;49.382;11.358;2023-04-27T09:29:05;96833.56;;;18.43;31.29
68197;BME280;55019;49.382;11.358;2023-04-27T09:31:31;96820.25;;;19.01;28.38
68197;BME280;55019;49.382;11.358;2023-04-27T09:33:57;96823.94;;;18.87;31.86
68197;BME280;55019;49.382;11.358;2023-04-27T09:36:24;96816.41;;;19.41;29.97
68197;BME280;55019;49.382;11.358;2023-04-27T09:38:50;96819.47;;;19.00;30.82
68197;BME280;55019;49.382;11.358;2023-04-27T09:41:17;96816.09;;;17.91;28.97
68197;BME280;55019;49.382;11.358;2023-04-27T09:43:43;96810.34;;;19.96;28.74
68197;BME280;55019;49.382;11.358;2023-04-27T09:46:13;96799.59;;;19.79;29.68
68197;BME280;55019;49.382;11.358;2023-04-27T09:48:40;96798.06;;;20.21;30.41
68197;BME280;55019;49.382;11.358;2023-04-27T09:51:06;96804.13;;;21.22;26.81
68197;BME280;55019;49.382;11.358;2023-04-27T09:53:36;96800.59;;;21.40;26.82
68197;BME280;55019;49.382;11.358;2023-04-27T09:59:01;96799.47;;;18.62;29.50
68197;BME280;55019;49.382;11.358;2023-04-27T10:01:45;96798.59;;;18.05;30.46
68197;BME280;55019;49.382;11.358;2023-04-27T10:07:10;96788.75;;;19.14;28.70
68197;BME280;55019;49.382;11.358;2023-04-27T10:09:44;96788.44;;;19.66;25.66
68197;BME280;55019;49.382;11.358;2023-04-27T10:12:26;96788.81;;;18.57;27.57
68197;BME280;55019;49.382;11.358;2023-04-27T10:14:53;96794.16;;;19.25;29.61
68197;BME280;55019;49.382;11.358;2023-04-27T10:17:30;96788.78;;;18.70;29.06
68197;BME280;55019;49.382;11.358;2023-04-27T10:20:02;96783.69;;;16.48;32.28
68197;BME280;55019;49.382;11.358;2023-04-27T10:22:45;96792.09;;;15.83;32.54
68197;BME280;55019;49.382;11.358;2023-04-27T10:25:18;96792.06;;;16.44;31.40
68197;BME280;55019;49.382;11.358;2023-04-27T10:27:59;96795.44;;;15.77;31.68
68197;BME280;55019;49.382;11.358;2023-04-27T10:30:31;96794.78;;;15.68;33.27
68197;BME280;55019;49.382;11.358;2023-04-27T10:32:58;96784.28;;;16.16;34.82
68197;BME280;55019;49.382;11.358;2023-04-27T10:35:43;96787.16;;;17.54;33.45
68197;BME280;55019;49.382;11.358;2023-04-27T10:38:18;96787.31;;;18.04;30.38
68197;BME280;55019;49.382;11.358;2023-04-27T10:40:54;96788.53;;;16.24;31.47
68197;BME280;55019;49.382;11.358;2023-04-27T10:43:24;96786.50;;;15.58;31.45
68197;BME280;55019;49.382;11.358;2023-04-27T10:45:53;96775.34;;;15.98;32.09
68197;BME280;55019;49.382;11.358;2023-04-27T10:48:19;96795.88;;;16.88;34.64
68197;BME280;55019;49.382;11.358;2023-04-27T10:50:45;96789.69;;;17.09;31.21
68197;BME280;55019;49.382;11.358;2023-04-27T10:53:11;96783.91;;;17.20;32.04
68197;BME280;55019;49.382;11.358;2023-04-27T10:55:38;96781.09;;;18.12;31.54
68197;BME280;55019;49.382;11.358;2023-04-27T10:58:04;96780.56;;;19.41;29.73
68197;BME280;55019;49.382;11.358;2023-04-27T11:00:48;96779.50;;;17.98;28.00
68197;BME280;55019;49.382;11.358;2023-04-27T11:03:16;96775.91;;;19.06;29.91
68197;BME280;55019;49.382;11.358;2023-04-27T11:05:44;96773.53;;;19.60;27.26
68197;BME280;55019;49.382;11.358;2023-04-27T11:08:12;96775.47;;;19.71;26.90
68197;BME280;55019;49.382;11.358;2023-04-27T11:10:42;96768.72;;;20.06;26.91
68197;BME280;55019;49.382;11.358;2023-04-27T11:13:09;96772.25;;;19.93;26.92
68197;BME280;55019;49.382;11.358;2023-04-27T11:15:50;96769.66;;;18.70;26.93
68197;BME280;55019;49.382;11.358;2023-04-27T11:18:17;96773.28;;;19.06;29.42
68197;BME280;55019;49.382;11.358;2023-04-27T11:20:48;96776.91;;;19.42;29.24
68197;BME280;55019;49.382;11.358;2023-04-27T11:23:26;96770.41;;;20.00;28.81
68197;BME280;55019;49.382;11.358;2023-04-27T11:25:54;96783.81;;;18.49;27.47
68197;BME280;55019;49.382;11.358;2023-04-27T11:28:23;96774.66;;;18.08;30.70
68197;BME280;55019;49.382;11.358;2023-04-27T11:30:58;96783.75;;;17.66;30.26
68197;BME280;55019;49.382;11.358;2023-04-27T11:33:24;96778.31;;;17.55;30.14
68197;BME280;55019;49.382;11.358;2023-04-27T11:35:51;96771.56;;;18.43;31.02
68197;BME280;55019;49.382;11.358;2023-04-27T11:38:18;96778.75;;;16.79;31.40
68197;BME280;55019;49.382;11.358;2023-04-27T11:40:45;96778.72;;;17.65;30.68
68197;BME280;55019;49.382;11.358;2023-04-27T11:43:12;96775.34;;;16.32;33.03
68197;BME280;55019;49.382;11.358;2023-04-27T11:45:42;96767.13;;;15.94;31.91
68197;BME280;55019;49.382;11.358;2023-04-27T11:48:14;96775.44;;;16.11;31.45
68197;BME280;55019;49.382;11.358;2023-04-27T11:50:40;96778.94;;;15.97;32.41
68197;BME280;55019;49.382;11.358;2023-04-27T11:53:07;96779.47;;;15.86;32.55
68197;BME280;55019;49.382;11.358;2023-04-27T11:55:35;96778.69;;;15.58;33.32
68197;BME280;55019;49.382;11.358;2023-04-27T11:58:12;96776.56;;;15.26;33.67
68197;BME280;55019;49.382;11.358;2023-04-27T12:00:38;96787.72;;;14.99;35.00
68197;BME280;55019;49.382;11.358;2023-04-27T12:03:04;96790.06;;;14.94;34.53
68197;BME280;55019;49.382;11.358;2023-04-27T12:05:29;96780.03;;;14.56;34.75
68197;BME280;55019;49.382;11.358;2023-04-27T12:07:55;96779.88;;;14.43;34.47
68197;BME280;55019;49.382;11.358;2023-04-27T12:10:21;96786.06;;;15.13;33.88
68197;BME280;55019;49.382;11.358;2023-04-27T12:12:47;96792.44;;;14.75;35.20
68197;BME280;55019;49.382;11.358;2023-04-27T12:15:12;96788.22;;;14.53;35.64
68197;BME280;55019;49.382;11.358;2023-04-27T12:17:38;96781.75;;;13.91;36.63
68197;BME280;55019;49.382;11.358;2023-04-27T12:20:05;96775.84;;;14.26;36.34
68197;BME280;55019;49.382;11.358;2023-04-27T12:22:31;96774.34;;;14.17;37.56
68197;BME280;55019;49.382;11.358;2023-04-27T12:24:56;96774.59;;;15.07;39.67
68197;BME280;55019;49.382;11.358;2023-04-27T12:27:22;96774.81;;;16.43;33.67
68197;BME280;55019;49.382;11.358;2023-04-27T12:29:48;96778.34;;;16.63;32.50
68197;BME280;55019;49.382;11.358;2023-04-27T12:32:13;96770.25;;;17.31;32.73
68197;BME280;55019;49.382;11.358;2023-04-27T12:34:39;96781.78;;;16.83;33.33
68197;BME280;55019;49.382;11.358;2023-04-27T12:37:07;96776.56;;;16.02;33.34
68197;BME280;55019;49.382;11.358;2023-04-27T12:39:32;96773.84;;;16.10;33.93
68197;BME280;55019;49.382;11.358;2023-04-27T12:41:58;96772.28;;;16.22;33.73
68197;BME280;55019;49.382;11.358;2023-04-27T12:44:24;96776.22;;;16.99;33.05
68197;BME280;55019;49.382;11.358;2023-04-27T12:46:51;96770.97;;;16.86;34.27
68197;BME280;55019;49.382;11.358;2023-04-27T12:49:17;96769.38;;;16.38;32.43
68197;BME280;55019;49.382;11.358;2023-04-27T12:51:42;96772.25;;;16.15;36.05
68197;BME280;55019;49.382;11.358;2023-04-27T12:54:09;96773.41;;;16.06;32.82
68197;BME280;55019;49.382;11.358;2023-04-27T12:56:35;96779.34;;;16.28;34.43
68197;BME280;55019;49.382;11.358;2023-04-27T12:59:01;96774.84;;;16.49;33.50
68197;BME280;55019;49.382;11.358;2023-04-27T13:01:27;96770.13;;;16.66;34.91
68197;BME280;55019;49.382;11.358;2023-04-27T13:03:54;96768.91;;;16.68;33.89
68197;BME280;55019;49.382;11.358;2023-04-27T13:06:20;96762.16;;;16.33;32.67